Aeroporto :
LOGIN :

Iscrizione | Disclaimer

   EN    FR    IT 

 










Sommario :    VFR   VFR Marginale   IFR   IFR Intensivo   IFR Molto Intensivo
Visibilità : 
Base nubi : 
>= 8 km
>= 3000ft
5 / 8 km
1000 / 3000 ft
1500m / 5 km
500 / 1000 ft
800 / 1500m
200 / 500 ft
< 800m
< 200 ft
Simboli :   Temporali  Nebbia  Neve Forte  Precipitazioni Forti  Vento > 20 kt
SIGMETs :   Varie  Temporali  Ghiacco  Turbolenza  Onda orograficha  Ceneri Vulcaniche






- Altitudine del aeroporto : 87 ft
- Codice IATA : AHO


LIEA - Fertilia Alghero

ULTIMO METAR :
  • 150220Z 24007KT CAVOK 14/11 Q1001

METARs OBSOLETI :
  • 150150Z 26008KT CAVOK 14/11 Q1001
  • 150120Z 27006KT CAVOK 13/11 Q1001
  • 150050Z 30007KT 260V320 CAVOK 14/12 Q1001
  • 150020Z 27008KT 240V300 9999 -RA FEW025 14/12 Q1001
  • 142350Z 25016KT 9999 -RA FEW025 13/13 Q1001 RETS

TAF TAF LIEA
Valido dal 15 a 00 ore il 16 a 00 ore UTC


142300Z 1500/1524 21020G30KT 9999 BKN025 BKN050
BECMG 1500/1502 25015KT
TEMPO 1500/1524 4000 TSRA
BECMG 1506/1508 VRB05KT
BECMG 1510/1512 21015KT



MetMap, La meteo Aeronautica in un colpo d'occhio ! - Copyright ORBIFLY Dicembre 2007 - Disclaimer

ORBIFLY MET'MAP TEAM :

Programmazione e sviluppo : Alexandra Zaïnal
Concezione e sviluppo : Baudouin d'Aumeries
Co-Programmazione e sviluppo : Marc-Olivier Méhu
Supporto tecnico e logistico : Manuel Goepfert
Aiuto per la traduzione : Arnaldo La Scala

Contatto : metmap@orbifly.com




FONTI E CREDITI :

   NOAA